sensor_id;sensor_type;location;lat;lon;timestamp;pressure;altitude;pressure_sealevel;temperature;humidity
14343;BME280;7255;53.596;9.960;2023-03-25T00:01:00;99682.38;;;9.15;nan
14343;BME280;7255;53.596;9.960;2023-03-25T00:03:29;99672.63;;;9.09;nan
14343;BME280;7255;53.596;9.960;2023-03-25T00:05:58;99671.47;;;9.05;nan
14343;BME280;7255;53.596;9.960;2023-03-25T00:08:25;99678.28;;;8.96;nan
14343;BME280;7255;53.596;9.960;2023-03-25T00:10:51;99668.50;;;8.90;nan
14343;BME280;7255;53.596;9.960;2023-03-25T00:13:18;99670.59;;;8.88;nan
14343;BME280;7255;53.596;9.960;2023-03-25T00:15:45;99671.56;;;8.81;nan
14343;BME280;7255;53.596;9.960;2023-03-25T00:18:12;99678.19;;;8.79;nan
14343;BME280;7255;53.596;9.960;2023-03-25T00:20:40;99676.44;;;8.84;nan
14343;BME280;7255;53.596;9.960;2023-03-25T00:23:06;99675.97;;;8.88;nan
14343;BME280;7255;53.596;9.960;2023-03-25T00:25:33;99676.75;;;8.88;nan
14343;BME280;7255;53.596;9.960;2023-03-25T00:27:59;99670.28;;;8.84;nan
14343;BME280;7255;53.596;9.960;2023-03-25T00:30:26;99664.56;;;8.80;nan
14343;BME280;7255;53.596;9.960;2023-03-25T00:32:52;99667.66;;;8.72;nan
14343;BME280;7255;53.596;9.960;2023-03-25T00:35:19;99656.25;;;8.65;nan
14343;BME280;7255;53.596;9.960;2023-03-25T00:37:47;99648.13;;;8.60;nan
14343;BME280;7255;53.596;9.960;2023-03-25T00:40:21;99651.03;;;8.58;nan
14343;BME280;7255;53.596;9.960;2023-03-25T00:42:48;99655.91;;;8.61;nan
14343;BME280;7255;53.596;9.960;2023-03-25T00:45:15;99655.91;;;8.61;nan
14343;BME280;7255;53.596;9.960;2023-03-25T00:47:41;99659.97;;;8.64;nan
14343;BME280;7255;53.596;9.960;2023-03-25T00:50:09;99646.34;;;8.65;nan
14343;BME280;7255;53.596;9.960;2023-03-25T00:52:35;99650.56;;;8.61;nan
14343;BME280;7255;53.596;9.960;2023-03-25T00:55:04;99651.84;;;8.59;nan
14343;BME280;7255;53.596;9.960;2023-03-25T00:57:31;99652.16;;;8.62;nan
14343;BME280;7255;53.596;9.960;2023-03-25T00:59:57;99662.62;;;8.76;nan
14343;BME280;7255;53.596;9.960;2023-03-25T01:02:23;99658.75;;;8.83;nan
14343;BME280;7255;53.596;9.960;2023-03-25T01:04:50;99663.94;;;8.90;nan
14343;BME280;7255;53.596;9.960;2023-03-25T01:07:17;99654.72;;;8.98;nan
14343;BME280;7255;53.596;9.960;2023-03-25T01:09:44;99660.25;;;9.08;nan
14343;BME280;7255;53.596;9.960;2023-03-25T01:12:14;99661.91;;;9.09;nan
14343;BME280;7255;53.596;9.960;2023-03-25T01:14:41;99659.31;;;9.14;nan
14343;BME280;7255;53.596;9.960;2023-03-25T01:17:08;99658.47;;;9.14;nan
14343;BME280;7255;53.596;9.960;2023-03-25T01:19:34;99648.59;;;9.14;nan
14343;BME280;7255;53.596;9.960;2023-03-25T01:22:00;99664.38;;;9.28;nan
14343;BME280;7255;53.596;9.960;2023-03-25T01:24:27;99655.59;;;9.32;nan
14343;BME280;7255;53.596;9.960;2023-03-25T01:26:53;99659.66;;;9.35;nan
14343;BME280;7255;53.596;9.960;2023-03-25T01:29:21;99658.03;;;9.34;nan
14343;BME280;7255;53.596;9.960;2023-03-25T01:31:47;99656.75;;;9.36;nan
14343;BME280;7255;53.596;9.960;2023-03-25T01:34:14;99649.94;;;9.46;nan
14343;BME280;7255;53.596;9.960;2023-03-25T01:36:41;99647.34;;;9.51;nan
14343;BME280;7255;53.596;9.960;2023-03-25T01:39:11;99650.06;;;9.56;nan
14343;BME280;7255;53.596;9.960;2023-03-25T01:41:41;99653.81;;;9.55;nan
14343;BME280;7255;53.596;9.960;2023-03-25T01:45:06;99648.78;;;9.58;nan
14343;BME280;7255;53.596;9.960;2023-03-25T01:46:59;99647.81;;;9.64;nan
14343;BME280;7255;53.596;9.960;2023-03-25T01:49:32;99640.00;;;9.63;nan
14343;BME280;7255;53.596;9.960;2023-03-25T01:52:04;99634.81;;;9.56;nan
14343;BME280;7255;53.596;9.960;2023-03-25T01:54:33;99643.44;;;9.58;nan
14343;BME280;7255;53.596;9.960;2023-03-25T01:57:01;99644.72;;;9.56;nan
14343;BME280;7255;53.596;9.960;2023-03-25T01:59:28;99637.88;;;9.48;nan
14343;BME280;7255;53.596;9.960;2023-03-25T02:01:55;99619.69;;;9.50;nan
14343;BME280;7255;53.596;9.960;2023-03-25T02:04:31;99634.81;;;9.56;nan
14343;BME280;7255;53.596;9.960;2023-03-25T02:07:03;99622.78;;;9.59;nan
14343;BME280;7255;53.596;9.960;2023-03-25T02:09:32;99628.47;;;9.62;nan
14343;BME280;7255;53.596;9.960;2023-03-25T02:11:59;99627.00;;;9.72;nan
14343;BME280;7255;53.596;9.960;2023-03-25T02:14:28;99623.75;;;9.70;nan
14343;BME280;7255;53.596;9.960;2023-03-25T02:17:02;99626.19;;;9.71;nan
14343;BME280;7255;53.596;9.960;2023-03-25T02:19:58;99625.22;;;9.60;nan
14343;BME280;7255;53.596;9.960;2023-03-25T02:22:46;99618.06;;;9.66;nan
14343;BME280;7255;53.596;9.960;2023-03-25T02:25:33;99611.25;;;9.58;nan
14343;BME280;7255;53.596;9.960;2023-03-25T02:28:08;99604.75;;;9.54;nan
14343;BME280;7255;53.596;9.960;2023-03-25T02:31:10;99603.59;;;9.50;nan
14343;BME280;7255;53.596;9.960;2023-03-25T02:33:48;99603.91;;;9.54;nan
14343;BME280;7255;53.596;9.960;2023-03-25T02:36:59;99603.94;;;9.37;nan
14343;BME280;7255;53.596;9.960;2023-03-25T02:39:34;99600.84;;;9.28;nan
14343;BME280;7255;53.596;9.960;2023-03-25T02:42:08;99600.50;;;9.24;nan
14343;BME280;7255;53.596;9.960;2023-03-25T02:44:41;99594.03;;;9.20;nan
14343;BME280;7255;53.596;9.960;2023-03-25T02:47:14;99583.78;;;9.17;nan
14343;BME280;7255;53.596;9.960;2023-03-25T02:49:44;99582.66;;;9.13;nan
14343;BME280;7255;53.596;9.960;2023-03-25T02:52:15;99591.25;;;9.15;nan
14343;BME280;7255;53.596;9.960;2023-03-25T02:54:44;99585.41;;;9.18;nan
14343;BME280;7255;53.596;9.960;2023-03-25T02:57:14;99583.31;;;9.20;nan
14343;BME280;7255;53.596;9.960;2023-03-25T02:59:44;99581.50;;;9.26;nan
14343;BME280;7255;53.596;9.960;2023-03-25T03:02:12;99582.31;;;9.27;nan
14343;BME280;7255;53.596;9.960;2023-03-25T03:04:47;99583.31;;;9.20;nan
14343;BME280;7255;53.596;9.960;2023-03-25T03:07:20;99562.84;;;9.14;nan
14343;BME280;7255;53.596;9.960;2023-03-25T03:09:52;99574.22;;;9.21;nan
14343;BME280;7255;53.596;9.960;2023-03-25T03:12:35;99566.75;;;9.23;nan
14343;BME280;7255;53.596;9.960;2023-03-25T03:15:17;99576.63;;;9.23;nan
14343;BME280;7255;53.596;9.960;2023-03-25T03:17:53;99571.28;;;9.23;nan
14343;BME280;7255;53.596;9.960;2023-03-25T03:20:29;99571.44;;;9.16;nan
14343;BME280;7255;53.596;9.960;2023-03-25T03:23:03;99571.28;;;9.23;nan
14343;BME280;7255;53.596;9.960;2023-03-25T03:25:38;99570.00;;;9.25;nan
14343;BME280;7255;53.596;9.960;2023-03-25T03:28:13;99568.34;;;9.24;nan
14343;BME280;7255;53.596;9.960;2023-03-25T03:30:45;99567.69;;;9.17;nan
14343;BME280;7255;53.596;9.960;2023-03-25T03:33:17;99563.31;;;9.11;nan
14343;BME280;7255;53.596;9.960;2023-03-25T03:35:49;99581.37;;;9.16;nan
14343;BME280;7255;53.596;9.960;2023-03-25T03:38:23;99566.56;;;9.13;nan
14343;BME280;7255;53.596;9.960;2023-03-25T03:40:55;99566.41;;;9.20;nan
14343;BME280;7255;53.596;9.960;2023-03-25T03:43:27;99566.09;;;9.16;nan
14343;BME280;7255;53.596;9.960;2023-03-25T03:45:58;99563.66;;;9.15;nan
14343;BME280;7255;53.596;9.960;2023-03-25T03:48:29;99562.34;;;9.17;nan
14343;BME280;7255;53.596;9.960;2023-03-25T03:51:00;99575.19;;;9.15;nan
14343;BME280;7255;53.596;9.960;2023-03-25T03:53:31;99568.22;;;9.14;nan
14343;BME280;7255;53.596;9.960;2023-03-25T03:56:04;99570.00;;;9.09;nan
14343;BME280;7255;53.596;9.960;2023-03-25T03:58:34;99567.56;;;9.07;nan
14343;BME280;7255;53.596;9.960;2023-03-25T04:01:04;99560.88;;;9.10;nan
14343;BME280;7255;53.596;9.960;2023-03-25T04:03:37;99560.56;;;9.06;nan
14343;BME280;7255;53.596;9.960;2023-03-25T04:06:11;99559.28;;;9.09;nan
14343;BME280;7255;53.596;9.960;2023-03-25T04:08:48;99570.47;;;9.05;nan
14343;BME280;7255;53.596;9.960;2023-03-25T04:11:21;99556.19;;;9.00;nan
14343;BME280;7255;53.596;9.960;2023-03-25T04:13:51;99557.31;;;9.04;nan
14343;BME280;7255;53.596;9.960;2023-03-25T04:16:21;99564.31;;;9.05;nan
14343;BME280;7255;53.596;9.960;2023-03-25T04:18:48;99563.81;;;9.08;nan
14343;BME280;7255;53.596;9.960;2023-03-25T04:21:17;99563.31;;;9.11;nan
14343;BME280;7255;53.596;9.960;2023-03-25T04:23:44;99562.34;;;9.17;nan
14343;BME280;7255;53.596;9.960;2023-03-25T04:26:11;99570.78;;;9.26;nan
14343;BME280;7255;53.596;9.960;2023-03-25T04:28:39;99570.66;;;9.33;nan
14343;BME280;7255;53.596;9.960;2023-03-25T04:31:11;99569.66;;;9.39;nan
14343;BME280;7255;53.596;9.960;2023-03-25T04:33:39;99568.03;;;9.38;nan
14343;BME280;7255;53.596;9.960;2023-03-25T04:36:06;99569.81;;;9.32;nan
14343;BME280;7255;53.596;9.960;2023-03-25T04:38:33;99580.03;;;9.35;nan
14343;BME280;7255;53.596;9.960;2023-03-25T04:41:01;99587.19;;;9.30;nan
14343;BME280;7255;53.596;9.960;2023-03-25T04:43:30;99594.19;;;9.31;nan
14343;BME280;7255;53.596;9.960;2023-03-25T04:45:59;99597.13;;;9.12;nan
14343;BME280;7255;53.596;9.960;2023-03-25T04:48:28;99594.00;;;8.86;nan
14343;BME280;7255;53.596;9.960;2023-03-25T04:50:56;99573.81;;;8.67;nan
14343;BME280;7255;53.596;9.960;2023-03-25T04:53:23;99575.94;;;8.65;nan
14343;BME280;7255;53.596;9.960;2023-03-25T04:55:49;99574.16;;;8.71;nan
14343;BME280;7255;53.596;9.960;2023-03-25T04:58:15;99567.50;;;8.73;nan
14343;BME280;7255;53.596;9.960;2023-03-25T05:00:43;99558.87;;;8.71;nan
14343;BME280;7255;53.596;9.960;2023-03-25T05:03:11;99558.87;;;8.71;nan
14343;BME280;7255;53.596;9.960;2023-03-25T05:05:40;99567.16;;;8.70;nan
14343;BME280;7255;53.596;9.960;2023-03-25T05:08:06;99580.31;;;8.71;nan
14343;BME280;7255;53.596;9.960;2023-03-25T05:10:34;99583.56;;;8.73;nan
14343;BME280;7255;53.596;9.960;2023-03-25T05:13:04;99582.28;;;8.76;nan
14343;BME280;7255;53.596;9.960;2023-03-25T05:15:32;99567.78;;;8.60;nan
14343;BME280;7255;53.596;9.960;2023-03-25T05:18:03;99579.94;;;8.51;nan
14343;BME280;7255;53.596;9.960;2023-03-25T05:20:32;99575.72;;;8.55;nan
14343;BME280;7255;53.596;9.960;2023-03-25T05:22:59;99585.97;;;8.58;nan
14343;BME280;7255;53.596;9.960;2023-03-25T05:25:25;99585.97;;;8.58;nan
14343;BME280;7255;53.596;9.960;2023-03-25T05:27:53;99595.88;;;8.57;nan
14343;BME280;7255;53.596;9.960;2023-03-25T05:30:19;99585.97;;;8.58;nan
14343;BME280;7255;53.596;9.960;2023-03-25T05:32:46;99591.13;;;8.47;nan
14343;BME280;7255;53.596;9.960;2023-03-25T05:35:15;99576.34;;;8.45;nan
14343;BME280;7255;53.596;9.960;2023-03-25T05:37:44;99584.16;;;8.46;nan
14343;BME280;7255;53.596;9.960;2023-03-25T05:40:10;99577.16;;;8.45;nan
14343;BME280;7255;53.596;9.960;2023-03-25T05:42:37;99577.84;;;8.53;nan
14343;BME280;7255;53.596;9.960;2023-03-25T05:45:04;99588.06;;;8.56;nan
14343;BME280;7255;53.596;9.960;2023-03-25T05:47:31;99587.09;;;8.62;nan
14343;BME280;7255;53.596;9.960;2023-03-25T05:49:57;99590.31;;;8.47;nan
14343;BME280;7255;53.596;9.960;2023-03-25T05:52:24;99592.25;;;8.52;nan
14343;BME280;7255;53.596;9.960;2023-03-25T05:54:52;99594.16;;;8.39;nan
14343;BME280;7255;53.596;9.960;2023-03-25T05:57:19;99598.25;;;8.42;nan
14343;BME280;7255;53.596;9.960;2023-03-25T05:59:46;99585.06;;;8.40;nan
14343;BME280;7255;53.596;9.960;2023-03-25T06:02:14;99598.25;;;8.42;nan
14343;BME280;7255;53.596;9.960;2023-03-25T06:04:41;99594.97;;;8.40;nan
14343;BME280;7255;53.596;9.960;2023-03-25T06:07:09;99597.53;;;8.35;nan
14343;BME280;7255;53.596;9.960;2023-03-25T06:09:39;99594.63;;;8.36;nan
14343;BME280;7255;53.596;9.960;2023-03-25T06:12:12;99603.47;;;8.48;nan
14343;BME280;7255;53.596;9.960;2023-03-25T06:14:39;99584.81;;;8.54;nan
14343;BME280;7255;53.596;9.960;2023-03-25T06:17:07;99596.22;;;8.61;nan
14343;BME280;7255;53.596;9.960;2023-03-25T06:19:33;99596.69;;;8.58;nan
14343;BME280;7255;53.596;9.960;2023-03-25T06:22:03;99598.28;;;8.59;nan
14343;BME280;7255;53.596;9.960;2023-03-25T06:24:29;99614.22;;;8.65;nan
14343;BME280;7255;53.596;9.960;2023-03-25T06:26:55;99609.19;;;8.69;nan
14343;BME280;7255;53.596;9.960;2023-03-25T06:29:23;99600.94;;;8.71;nan
14343;BME280;7255;53.596;9.960;2023-03-25T06:31:50;99609.31;;;8.74;nan
14343;BME280;7255;53.596;9.960;2023-03-25T06:34:17;99622.53;;;8.81;nan
14343;BME280;7255;53.596;9.960;2023-03-25T06:36:43;99617.16;;;8.81;nan
14343;BME280;7255;53.596;9.960;2023-03-25T06:39:09;99624.50;;;8.85;nan
14343;BME280;7255;53.596;9.960;2023-03-25T06:41:35;99613.78;;;8.85;nan
14343;BME280;7255;53.596;9.960;2023-03-25T06:44:02;99613.47;;;8.99;nan
14343;BME280;7255;53.596;9.960;2023-03-25T06:46:30;99613.97;;;8.96;nan
14343;BME280;7255;53.596;9.960;2023-03-25T06:48:57;99616.06;;;8.94;nan
14343;BME280;7255;53.596;9.960;2023-03-25T06:51:23;99609.72;;;8.83;nan
14343;BME280;7255;53.596;9.960;2023-03-25T06:53:50;99611.47;;;8.77;nan
14343;BME280;7255;53.596;9.960;2023-03-25T06:56:16;99610.06;;;8.86;nan
14343;BME280;7255;53.596;9.960;2023-03-25T06:58:42;99609.72;;;8.83;nan
14343;BME280;7255;53.596;9.960;2023-03-25T07:01:09;99613.66;;;8.92;nan
14343;BME280;7255;53.596;9.960;2023-03-25T07:03:37;99610.06;;;8.86;nan
14343;BME280;7255;53.596;9.960;2023-03-25T07:06:05;99587.78;;;8.69;nan
14343;BME280;7255;53.596;9.960;2023-03-25T07:08:31;99600.06;;;8.53;nan
14343;BME280;7255;53.596;9.960;2023-03-25T07:11:00;99614.63;;;8.45;nan
14343;BME280;7255;53.596;9.960;2023-03-25T07:13:26;99620.34;;;8.49;nan
14343;BME280;7255;53.596;9.960;2023-03-25T07:15:53;99616.12;;;8.53;nan
14343;BME280;7255;53.596;9.960;2023-03-25T07:18:20;99616.19;;;8.70;nan
14343;BME280;7255;53.596;9.960;2023-03-25T07:20:48;99622.53;;;8.81;nan
14343;BME280;7255;53.596;9.960;2023-03-25T07:23:14;99622.09;;;9.01;nan
14343;BME280;7255;53.596;9.960;2023-03-25T07:25:40;99628.78;;;9.15;nan
14343;BME280;7255;53.596;9.960;2023-03-25T07:28:07;99632.69;;;9.24;nan
14343;BME280;7255;53.596;9.960;2023-03-25T07:30:33;99637.88;;;9.31;nan
14343;BME280;7255;53.596;9.960;2023-03-25T07:33:00;99637.88;;;9.31;nan
14343;BME280;7255;53.596;9.960;2023-03-25T07:35:26;99638.88;;;9.42;nan
14343;BME280;7255;53.596;9.960;2023-03-25T07:37:54;99636.75;;;9.44;nan
14343;BME280;7255;53.596;9.960;2023-03-25T07:40:20;99633.97;;;9.56;nan
14343;BME280;7255;53.596;9.960;2023-03-25T07:42:46;99642.75;;;9.68;nan
14343;BME280;7255;53.596;9.960;2023-03-25T07:45:13;99631.22;;;9.68;nan
14343;BME280;7255;53.596;9.960;2023-03-25T07:47:39;99637.06;;;9.81;nan
14343;BME280;7255;53.596;9.960;2023-03-25T07:50:07;99642.22;;;10.05;nan
14343;BME280;7255;53.596;9.960;2023-03-25T07:52:33;99646.94;;;9.98;nan
14343;BME280;7255;53.596;9.960;2023-03-25T07:55:01;99630.72;;;9.88;nan
14343;BME280;7255;53.596;9.960;2023-03-25T07:57:27;99636.25;;;9.81;nan
14343;BME280;7255;53.596;9.960;2023-03-25T07:59:54;99635.25;;;9.87;nan
14343;BME280;7255;53.596;9.960;2023-03-25T08:02:20;99630.84;;;9.98;nan
14343;BME280;7255;53.596;9.960;2023-03-25T08:04:46;99630.19;;;10.08;nan
14343;BME280;7255;53.596;9.960;2023-03-25T08:07:14;99635.87;;;10.11;nan
14343;BME280;7255;53.596;9.960;2023-03-25T08:09:40;99642.03;;;10.12;nan
14343;BME280;7255;53.596;9.960;2023-03-25T08:12:08;99643.63;;;10.30;nan
14343;BME280;7255;53.596;9.960;2023-03-25T08:14:34;99634.69;;;10.24;nan
14343;BME280;7255;53.596;9.960;2023-03-25T08:17:01;99643.66;;;10.13;nan
14343;BME280;7255;53.596;9.960;2023-03-25T08:19:27;99643.16;;;10.16;nan
14343;BME280;7255;53.596;9.960;2023-03-25T08:21:53;99644.00;;;9.99;nan
14343;BME280;7255;53.596;9.960;2023-03-25T08:24:20;99643.69;;;9.96;nan
14343;BME280;7255;53.596;9.960;2023-03-25T08:26:47;99656.66;;;10.21;nan
14343;BME280;7255;53.596;9.960;2023-03-25T08:29:15;99651.47;;;10.31;nan
14343;BME280;7255;53.596;9.960;2023-03-25T08:31:42;99655.44;;;10.51;nan
14343;BME280;7255;53.596;9.960;2023-03-25T08:34:11;99652.25;;;10.76;nan
14343;BME280;7255;53.596;9.960;2023-03-25T08:36:38;99651.44;;;10.75;nan
14343;BME280;7255;53.596;9.960;2023-03-25T08:39:05;99648.81;;;10.81;nan
14343;BME280;7255;53.596;9.960;2023-03-25T08:41:35;99641.06;;;10.62;nan
14343;BME280;7255;53.596;9.960;2023-03-25T08:44:02;99641.34;;;10.38;nan
14343;BME280;7255;53.596;9.960;2023-03-25T08:46:30;99653.16;;;10.59;nan
14343;BME280;7255;53.596;9.960;2023-03-25T08:48:56;99640.59;;;10.65;nan
14343;BME280;7255;53.596;9.960;2023-03-25T08:51:24;99651.31;;;10.65;nan
14343;BME280;7255;53.596;9.960;2023-03-25T08:53:50;99651.41;;;10.48;nan
14343;BME280;7255;53.596;9.960;2023-03-25T08:56:16;99666.09;;;10.40;nan
14343;BME280;7255;53.596;9.960;2023-03-25T08:58:43;99651.47;;;10.31;nan
14343;BME280;7255;53.596;9.960;2023-03-25T09:01:09;99649.03;;;10.13;nan
14343;BME280;7255;53.596;9.960;2023-03-25T09:03:38;99647.62;;;9.88;nan
14343;BME280;7255;53.596;9.960;2023-03-25T09:06:05;99659.03;;;9.78;nan
14343;BME280;7255;53.596;9.960;2023-03-25T09:08:32;99660.50;;;9.69;nan
14343;BME280;7255;53.596;9.960;2023-03-25T09:10:58;99650.87;;;9.39;nan
14343;BME280;7255;53.596;9.960;2023-03-25T09:13:25;99656.75;;;9.36;nan
14343;BME280;7255;53.596;9.960;2023-03-25T09:15:51;99673.44;;;9.27;nan
14343;BME280;7255;53.596;9.960;2023-03-25T09:18:17;99682.34;;;8.98;nan
14343;BME280;7255;53.596;9.960;2023-03-25T09:20:45;99650.41;;;8.68;nan
14343;BME280;7255;53.596;9.960;2023-03-25T09:23:12;99658.37;;;8.63;nan
14343;BME280;7255;53.596;9.960;2023-03-25T09:25:39;99658.87;;;8.77;nan
14343;BME280;7255;53.596;9.960;2023-03-25T09:28:05;99657.78;;;8.90;nan
14343;BME280;7255;53.596;9.960;2023-03-25T09:30:32;99649.47;;;8.74;nan
14343;BME280;7255;53.596;9.960;2023-03-25T09:32:58;99650.41;;;8.68;nan
14343;BME280;7255;53.596;9.960;2023-03-25T09:35:25;99651.72;;;8.65;nan
14343;BME280;7255;53.596;9.960;2023-03-25T09:37:53;99650.28;;;8.75;nan
14343;BME280;7255;53.596;9.960;2023-03-25T09:40:20;99659.44;;;8.91;nan
14343;BME280;7255;53.596;9.960;2023-03-25T09:42:56;99645.13;;;8.85;nan
14343;BME280;7255;53.596;9.960;2023-03-25T09:45:31;99648.50;;;8.80;nan
14343;BME280;7255;53.596;9.960;2023-03-25T09:48:02;99651.75;;;8.82;nan
14343;BME280;7255;53.596;9.960;2023-03-25T09:50:31;99648.06;;;9.00;nan
14343;BME280;7255;53.596;9.960;2023-03-25T09:53:04;99658.47;;;9.14;nan
14343;BME280;7255;53.596;9.960;2023-03-25T09:55:37;99652.31;;;9.13;nan
14343;BME280;7255;53.596;9.960;2023-03-25T09:58:22;99650.72;;;9.12;nan
14343;BME280;7255;53.596;9.960;2023-03-25T10:00:55;99652.00;;;9.27;nan
14343;BME280;7255;53.596;9.960;2023-03-25T10:03:25;99652.19;;;9.37;nan
14343;BME280;7255;53.596;9.960;2023-03-25T10:06:05;99655.09;;;9.52;nan
14343;BME280;7255;53.596;9.960;2023-03-25T10:08:46;99662.09;;;9.53;nan
14343;BME280;7255;53.596;9.960;2023-03-25T10:11:24;99668.91;;;9.78;nan
14343;BME280;7255;53.596;9.960;2023-03-25T10:13:54;99666.00;;;9.96;nan
14343;BME280;7255;53.596;9.960;2023-03-25T10:16:29;99679.13;;;10.15;nan
14343;BME280;7255;53.596;9.960;2023-03-25T10:19:12;99663.66;;;10.22;nan
14343;BME280;7255;53.596;9.960;2023-03-25T10:21:49;99682.69;;;10.37;nan
14343;BME280;7255;53.596;9.960;2023-03-25T10:24:21;99682.31;;;10.51;nan
14343;BME280;7255;53.596;9.960;2023-03-25T10:26:54;99673.69;;;10.49;nan
14343;BME280;7255;53.596;9.960;2023-03-25T10:29:27;99687.03;;;10.44;nan
14343;BME280;7255;53.596;9.960;2023-03-25T10:31:58;99687.03;;;10.44;nan
14343;BME280;7255;53.596;9.960;2023-03-25T10:34:32;99686.81;;;10.67;nan
14343;BME280;7255;53.596;9.960;2023-03-25T10:37:02;99693.47;;;11.09;nan
14343;BME280;7255;53.596;9.960;2023-03-25T10:39:31;99700.25;;;11.16;nan
14343;BME280;7255;53.596;9.960;2023-03-25T10:42:11;99682.69;;;11.36;nan
14343;BME280;7255;53.596;9.960;2023-03-25T10:44:40;99683.81;;;11.40;nan
14343;BME280;7255;53.596;9.960;2023-03-25T10:47:11;99683.97;;;11.61;nan
14343;BME280;7255;53.596;9.960;2023-03-25T10:49:40;99672.84;;;11.84;nan
14343;BME280;7255;53.596;9.960;2023-03-25T10:52:07;99678.59;;;11.61;nan
14343;BME280;7255;53.596;9.960;2023-03-25T10:54:38;99677.12;;;11.80;nan
14343;BME280;7255;53.596;9.960;2023-03-25T10:57:07;99691.34;;;11.75;nan
14343;BME280;7255;53.596;9.960;2023-03-25T10:59:36;99670.41;;;11.45;nan
14343;BME280;7255;53.596;9.960;2023-03-25T11:02:11;99664.94;;;11.35;nan
14343;BME280;7255;53.596;9.960;2023-03-25T11:04:41;99668.41;;;11.03;nan
14343;BME280;7255;53.596;9.960;2023-03-25T11:07:15;99671.22;;;10.91;nan
14343;BME280;7255;53.596;9.960;2023-03-25T11:09:45;99671.00;;;10.71;nan
14343;BME280;7255;53.596;9.960;2023-03-25T11:12:16;99672.19;;;10.58;nan
14343;BME280;7255;53.596;9.960;2023-03-25T11:14:43;99682.69;;;10.37;nan
14343;BME280;7255;53.596;9.960;2023-03-25T11:17:14;99675.66;;;9.97;nan
14343;BME280;7255;53.596;9.960;2023-03-25T11:19:52;99679.50;;;9.68;nan
14343;BME280;7255;53.596;9.960;2023-03-25T11:22:22;99687.28;;;9.35;nan
14343;BME280;7255;53.596;9.960;2023-03-25T11:24:51;99688.41;;;9.39;nan
14343;BME280;7255;53.596;9.960;2023-03-25T11:27:24;99693.78;;;9.39;nan
14343;BME280;7255;53.596;9.960;2023-03-25T11:29:54;99703.03;;;9.49;nan
14343;BME280;7255;53.596;9.960;2023-03-25T11:32:22;99697.31;;;9.11;nan
14343;BME280;7255;53.596;9.960;2023-03-25T11:34:51;99693.72;;;9.05;nan
14343;BME280;7255;53.596;9.960;2023-03-25T11:37:19;99696.84;;;9.14;nan
14343;BME280;7255;53.596;9.960;2023-03-25T11:39:51;99693.97;;;9.50;nan
14343;BME280;7255;53.596;9.960;2023-03-25T11:42:27;99693.12;;;10.00;nan
14343;BME280;7255;53.596;9.960;2023-03-25T11:44:57;99689.34;;;10.18;nan
14343;BME280;7255;53.596;9.960;2023-03-25T11:47:26;99689.63;;;10.55;nan
14343;BME280;7255;53.596;9.960;2023-03-25T11:49:55;99678.53;;;10.96;nan
14343;BME280;7255;53.596;9.960;2023-03-25T11:52:23;99685.53;;;10.97;nan
14343;BME280;7255;53.596;9.960;2023-03-25T11:54:53;99689.13;;;10.58;nan
14343;BME280;7255;53.596;9.960;2023-03-25T11:57:23;99668.69;;;10.35;nan
14343;BME280;7255;53.596;9.960;2023-03-25T12:00:00;99684.56;;;10.59;nan
14343;BME280;7255;53.596;9.960;2023-03-25T12:02:35;99673.37;;;11.16;nan
14343;BME280;7255;53.596;9.960;2023-03-25T12:05:09;99675.50;;;11.42;nan
14343;BME280;7255;53.596;9.960;2023-03-25T12:07:40;99677.59;;;11.67;nan
14343;BME280;7255;53.596;9.960;2023-03-25T12:10:15;99673.59;;;11.74;nan
14343;BME280;7255;53.596;9.960;2023-03-25T12:12:47;99673.16;;;11.50;nan
14343;BME280;7255;53.596;9.960;2023-03-25T12:15:22;99667.97;;;11.44;nan
14343;BME280;7255;53.596;9.960;2023-03-25T12:18:04;99670.63;;;11.39;nan
14343;BME280;7255;53.596;9.960;2023-03-25T12:20:40;99658.03;;;11.17;nan
14343;BME280;7255;53.596;9.960;2023-03-25T12:23:18;99664.13;;;11.07;nan
14343;BME280;7255;53.596;9.960;2023-03-25T12:25:53;99658.75;;;11.07;nan
14343;BME280;7255;53.596;9.960;2023-03-25T12:31:37;99655.09;;;11.18;nan
14343;BME280;7255;53.596;9.960;2023-03-25T12:34:13;99654.97;;;11.35;nan
14343;BME280;7255;53.596;9.960;2023-03-25T12:36:50;99641.59;;;11.78;nan
14343;BME280;7255;53.596;9.960;2023-03-25T12:39:28;99657.63;;;11.95;nan
14343;BME280;7255;53.596;9.960;2023-03-25T12:42:05;99648.28;;;11.75;nan
14343;BME280;7255;53.596;9.960;2023-03-25T12:44:44;99647.50;;;11.75;nan
14343;BME280;7255;53.596;9.960;2023-03-25T12:47:22;99649.69;;;11.46;nan
14343;BME280;7255;53.596;9.960;2023-03-25T12:49:59;99656.47;;;11.53;nan
14343;BME280;7255;53.596;9.960;2023-03-25T12:52:34;99652.00;;;11.64;nan
14343;BME280;7255;53.596;9.960;2023-03-25T12:55:22;99629.81;;;11.47;nan
14343;BME280;7255;53.596;9.960;2023-03-25T12:58:03;99636.00;;;11.47;nan
14343;BME280;7255;53.596;9.960;2023-03-25T13:00:40;99644.22;;;11.35;nan
14343;BME280;7255;53.596;9.960;2023-03-25T13:03:27;99642.63;;;11.07;nan
14343;BME280;7255;53.596;9.960;2023-03-25T13:06:02;99636.94;;;10.76;nan
14343;BME280;7255;53.596;9.960;2023-03-25T13:08:35;99638.22;;;10.47;nan
14343;BME280;7255;53.596;9.960;2023-03-25T13:11:10;99631.44;;;10.39;nan
14343;BME280;7255;53.596;9.960;2023-03-25T13:13:40;99629.47;;;10.34;nan
14343;BME280;7255;53.596;9.960;2023-03-25T13:16:09;99623.44;;;10.27;nan
14343;BME280;7255;53.596;9.960;2023-03-25T13:18:40;99635.03;;;10.28;nan
14343;BME280;7255;53.596;9.960;2023-03-25T13:21:15;99636.97;;;10.32;nan
14343;BME280;7255;53.596;9.960;2023-03-25T13:23:45;99644.91;;;10.44;nan
14343;BME280;7255;53.596;9.960;2023-03-25T13:26:16;99648.03;;;10.36;nan
14343;BME280;7255;53.596;9.960;2023-03-25T13:28:49;99639.75;;;10.20;nan
14343;BME280;7255;53.596;9.960;2023-03-25T13:31:20;99635.09;;;9.94;nan
14343;BME280;7255;53.596;9.960;2023-03-25T13:33:51;99637.69;;;10.06;nan
14343;BME280;7255;53.596;9.960;2023-03-25T13:36:23;99644.28;;;10.20;nan
14343;BME280;7255;53.596;9.960;2023-03-25T13:38:53;99639.22;;;10.40;nan
14343;BME280;7255;53.596;9.960;2023-03-25T13:41:24;99638.22;;;10.47;nan
14343;BME280;7255;53.596;9.960;2023-03-25T13:43:59;99659.84;;;10.57;nan
14343;BME280;7255;53.596;9.960;2023-03-25T13:46:32;99651.41;;;10.48;nan
14343;BME280;7255;53.596;9.960;2023-03-25T13:49:04;99646.56;;;10.28;nan
14343;BME280;7255;53.596;9.960;2023-03-25T13:51:32;99645.78;;;10.11;nan
14343;BME280;7255;53.596;9.960;2023-03-25T13:54:00;99624.66;;;9.97;nan
14343;BME280;7255;53.596;9.960;2023-03-25T13:56:47;99632.19;;;9.78;nan
14343;BME280;7255;53.596;9.960;2023-03-25T14:07:51;99637.56;;;9.78;nan
14343;BME280;7255;53.596;9.960;2023-03-25T14:10:45;99640.31;;;9.83;nan